This is the latest recevied weather packets stored in our database for station/object OE-11140. If no packets are shown the sender has not sent any weather packets the latest 10 day(s).
| Time | Temp. | Humidity | Pressure | Rain* | Wind** | Luminosity | Snow |
|---|---|---|---|---|---|---|---|
| 1788345690 | 23.89° C | 43% | 1018.6 hPa | 0 mm | - | 742 W/m² | - |
| 1788345317 | 23.89° C | 44% | 1018.7 hPa | 0 mm | - | 749 W/m² | - |
| 1788344717 | 23.33° C | 48% | 1018.7 hPa | 0 mm | - | 769 W/m² | - |
| 1788343890 | 23.33° C | 46% | 1019 hPa | 0 mm | - | 742 W/m² | - |
| 1788343517 | 23.33° C | 54% | 1019 hPa | 0 mm | - | 769 W/m² | - |
| 1788342917 | 22.78° C | 52% | 1019.3 hPa | 0 mm | - | 729 W/m² | - |
| 1788342090 | 21.67° C | 52% | 1019.6 hPa | 0 mm | - | 583 W/m² | - |
| 1788341717 | 22.22° C | 58% | 1019.6 hPa | 0 mm | - | 702 W/m² | - |
| 1788341117 | 21.67° C | 56% | 1019.9 hPa | 0 mm | - | 696 W/m² | - |
| 1788340290 | 21.11° C | 56% | 1020 hPa | 0 mm | - | 716 W/m² | - |
| 1788339917 | 20.56° C | 61% | 1020.1 hPa | 0 mm | - | 616 W/m² | - |
| 1788338490 | 20.56° C | 63% | 1020.2 hPa | 0 mm | - | 524 W/m² | - |
| 1788338117 | 20° C | 61% | 1020.4 hPa | 0 mm | - | 577 W/m² | - |
| 1788337517 | 19.44° C | 66% | 1020.6 hPa | 0 mm | - | 537 W/m² | - |
| 1788336690 | 18.89° C | 67% | 1020.8 hPa | 0 mm | - | 517 W/m² | - |
| 1788336317 | 18.33° C | 70% | 1020.9 hPa | 0 mm | - | 490 W/m² | - |
| 1788335717 | 18.33° C | 68% | 1021 hPa | 0 mm | - | 464 W/m² | - |
| 1788334890 | 17.78° C | 71% | 1021 hPa | 0 mm | - | 437 W/m² | - |
| 1788334517 | 16.67° C | 74% | 1021.5 hPa | 0 mm | - | 411 W/m² | - |
| 1788333917 | 16.11° C | 78% | 1021.7 hPa | 0 mm | - | 371 W/m² | - |
| 1788333210 | 14.44° C | 82% | 1022.1 hPa | 0 mm | - | 358 W/m² | - |
| 1788332716 | 13.33° C | 86% | 1022.5 hPa | 0 mm | - | 292 W/m² | - |
| 1788332117 | 11.67° C | 91% | 1022.8 hPa | 0 mm | - | 46 W/m² | - |
| 1788331290 | 11.67° C | 92% | 1023.1 hPa | 0 mm | - | 46 W/m² | - |
| 1788330317 | 11.11° C | 93% | 1023.3 hPa | 0 mm | - | 40 W/m² | - |
* Rain latest hour (hover to see other rain measurements)
** Current wind speed in m/s (hover to see current wind gust speed)